Time;durP1;ratioP1;P1;durP2;ratioP2;P2;SDS_P1;SDS_P2;PMS_P1;PMS_P2;Temp;Humidity;BMP_temperature;BMP_pressure;BME280_temperature;BME280_humidity;BME280_pressure;Samples;Min_cycle;Max_cycle;Signal;HPM_P1;HPM_P2
2022/12/18 00:00:56;;;;;;;10.25;6.63;;;;;;;-6.62;80.29;102063.34;10612195;28;20043;-79
2022/12/18 00:05:59;;;;;;;10.45;6.18;;;;;;;-6.58;80.52;102051.44;10641037;28;20043;-79
2022/12/18 00:11:10;;;;;;;12.27;6.35;;;;;;;-6.44;80.04;102051.03;10611511;28;20051;-79
2022/12/18 00:16:20;;;;;;;9.10;5.82;;;;;;;-6.50;80.32;102048.06;10623051;28;20051;-79
2022/12/18 00:21:22;;;;;;;11.45;6.18;;;;;;;-6.50;79.86;102040.91;10655184;27;20410;-79
2022/12/18 00:26:30;;;;;;;10.18;5.93;;;;;;;-6.53;80.10;102051.03;10631982;27;20044;-78
2022/12/18 00:31:37;;;;;;;9.27;5.43;;;;;;;-6.50;79.62;102042.72;10622216;27;20035;-80
2022/12/18 00:36:40;;;;;;;10.75;5.80;;;;;;;-6.43;80.37;102038.53;10572833;28;20055;-80
2022/12/18 00:47:03;;;;;;;9.80;5.43;;;;;;;-6.44;79.55;102035.00;10556123;28;20040;-79
2022/12/18 00:52:06;;;;;;;8.80;5.47;;;;;;;-6.58;80.16;102030.06;10557908;28;20036;-80
2022/12/18 00:57:08;;;;;;;9.95;6.05;;;;;;;-6.40;80.01;102031.13;10590069;28;20040;-79
2022/12/18 01:02:11;;;;;;;11.70;5.65;;;;;;;-6.28;79.47;102029.16;10536760;28;20051;-79
2022/12/18 01:07:16;;;;;;;8.73;5.70;;;;;;;-6.24;79.58;102035.09;10564828;28;20040;-80
2022/12/18 01:12:20;;;;;;;10.65;5.82;;;;;;;-6.25;79.57;102022.69;10574166;28;20517;-80
2022/12/18 01:17:26;;;;;;;7.95;5.03;;;;;;;-6.17;79.34;102010.34;10548314;28;20051;-79
2022/12/18 01:22:29;;;;;;;8.77;5.65;;;;;;;-6.23;78.94;102005.56;10570665;28;20513;-79
2022/12/18 01:27:32;;;;;;;10.60;6.03;;;;;;;-6.22;79.29;102001.06;10568537;28;20040;-80
2022/12/18 01:32:34;;;;;;;9.13;5.65;;;;;;;-6.31;79.14;102002.72;10569919;28;20043;-81
2022/12/18 01:37:38;;;;;;;13.65;6.68;;;;;;;-6.32;78.98;102013.53;10589197;28;20054;-81
2022/12/18 01:42:40;;;;;;;10.40;6.13;;;;;;;-6.44;79.32;102012.81;10579670;28;20035;-80
2022/12/18 01:47:53;;;;;;;11.93;6.35;;;;;;;-6.46;79.13;102006.75;10623675;27;20031;-78
2022/12/18 01:53:12;;;;;;;9.57;5.80;;;;;;;-6.79;79.71;102011.44;10639269;27;20409;-80
2022/12/18 01:58:15;;;;;;;9.32;5.28;;;;;;;-7.16;81.13;102019.13;10596504;27;20498;-80
2022/12/18 02:03:17;;;;;;;9.55;6.38;;;;;;;-7.02;81.29;101997.44;10611325;27;20047;-79
2022/12/18 02:08:49;;;;;;;11.90;6.53;;;;;;;-6.76;81.06;102000.50;10596856;27;20047;-81
2022/12/18 02:14:00;;;;;;;11.05;6.20;;;;;;;-6.71;81.08;102002.75;10528331;28;20461;-79
2022/12/18 02:19:21;;;;;;;10.43;6.28;;;;;;;-6.65;80.68;102002.22;10594536;27;20058;-81
2022/12/18 02:24:58;;;;;;;9.07;5.85;;;;;;;-6.73;80.45;101989.56;10544831;27;20054;-81
2022/12/18 02:30:02;;;;;;;9.15;5.72;;;;;;;-6.45;80.00;101985.25;10600396;28;20042;-79
2022/12/18 02:35:12;;;;;;;9.10;5.35;;;;;;;-6.48;80.38;101984.69;10611650;27;20044;-79
2022/12/18 02:40:17;;;;;;;11.32;5.68;;;;;;;-6.57;80.12;101989.03;10589957;27;20046;-79
2022/12/18 02:45:20;;;;;;;8.35;4.90;;;;;;;-6.60;79.94;101981.28;10592786;28;20055;-79
2022/12/18 02:50:38;;;;;;;10.48;5.82;;;;;;;-6.66;80.32;101981.00;10606614;28;20050;-79
2022/12/18 02:56:02;;;;;;;9.23;5.93;;;;;;;-6.55;80.05;101989.75;10573948;28;20550;-79
2022/12/18 03:01:10;;;;;;;8.88;5.43;;;;;;;-6.46;79.95;101983.56;10585902;28;20091;-80
2022/12/18 03:06:21;;;;;;;9.45;5.72;;;;;;;-6.35;79.77;101992.47;10592016;28;20058;-78
2022/12/18 03:16:51;;;;;;;13.75;7.53;;;;;;;-6.29;80.04;101986.56;10560827;28;20073;-79
2022/12/18 03:22:00;;;;;;;13.65;7.75;;;;;;;-6.32;79.29;101992.19;10596772;28;20058;-79
2022/12/18 03:27:12;;;;;;;12.43;7.35;;;;;;;-6.35;79.77;101987.13;10583362;28;20035;-80
2022/12/18 03:32:30;;;;;;;15.10;8.57;;;;;;;-6.42;79.46;101995.69;10598977;28;20039;-80
2022/12/18 03:37:34;;;;;;;14.05;8.07;;;;;;;-6.41;80.25;101989.38;10595143;28;20051;-80
2022/12/18 03:42:51;;;;;;;13.43;7.88;;;;;;;-6.31;79.72;101984.03;10606600;28;20038;-80
2022/12/18 03:48:17;;;;;;;12.60;8.02;;;;;;;-6.34;80.07;101999.50;10574831;28;20043;-80
2022/12/18 03:53:48;;;;;;;13.93;7.78;;;;;;;-6.39;79.80;101995.41;10580363;28;20055;-80
2022/12/18 03:58:53;;;;;;;16.15;9.13;;;;;;;-6.54;79.78;101987.94;10600799;27;20502;-81
2022/12/18 04:04:00;;;;;;;15.30;8.13;;;;;;;-6.60;80.39;101981.28;10605551;27;20399;-80
2022/12/18 04:09:05;;;;;;;17.42;8.10;;;;;;;-6.46;80.79;101978.22;10582191;27;20050;-80
2022/12/18 04:14:12;;;;;;;14.02;8.15;;;;;;;-6.35;80.81;101973.78;10588027;27;20422;-79
2022/12/18 04:19:14;;;;;;;16.17;8.35;;;;;;;-6.29;80.81;101971.38;10600627;28;20039;-80
2022/12/18 04:24:19;;;;;;;14.48;7.80;;;;;;;-6.35;80.57;101969.28;10582912;27;20509;-79
2022/12/18 04:29:32;;;;;;;15.02;8.13;;;;;;;-6.42;80.55;101992.16;10594895;28;20040;-81
2022/12/18 04:34:35;;;;;;;12.65;7.53;;;;;;;-6.31;80.39;101996.53;10603446;28;20050;-81
2022/12/18 04:39:38;;;;;;;14.18;7.57;;;;;;;-6.24;80.69;101984.34;10597939;28;20044;-81
2022/12/18 04:44:45;;;;;;;13.65;7.30;;;;;;;-6.23;79.89;101984.19;10603070;28;20032;-81
2022/12/18 04:49:48;;;;;;;12.75;7.43;;;;;;;-6.50;79.75;101992.84;10612940;28;20630;-81
2022/12/18 04:54:50;;;;;;;15.10;7.80;;;;;;;-6.60;79.70;101983.97;10574712;28;20040;-80
2022/12/18 04:59:52;;;;;;;16.08;7.50;;;;;;;-6.86;80.32;101988.09;10600355;27;20059;-79
2022/12/18 05:04:55;;;;;;;16.00;8.00;;;;;;;-6.85;79.86;101987.97;10601107;27;20413;-79
2022/12/18 05:09:58;;;;;;;15.07;7.78;;;;;;;-6.75;79.62;101985.34;10597690;27;20048;-80
2022/12/18 05:15:00;;;;;;;18.23;8.10;;;;;;;-6.70;80.24;101989.28;10615540;27;20051;-79
2022/12/18 05:20:05;;;;;;;17.30;8.32;;;;;;;-6.58;79.83;101986.53;10614708;28;20047;-79
2022/12/18 05:25:08;;;;;;;17.63;8.82;;;;;;;-6.58;80.93;101983.84;10611987;27;20047;-79
2022/12/18 05:30:11;;;;;;;12.57;7.35;;;;;;;-6.80;80.23;101964.38;10625660;27;20040;-79
2022/12/18 05:35:14;;;;;;;17.33;7.80;;;;;;;-6.85;80.33;101971.09;10613257;28;20052;-79
2022/12/18 05:40:16;;;;;;;14.93;8.88;;;;;;;-6.86;80.42;101983.59;10618897;27;20051;-80
2022/12/18 05:45:20;;;;;;;13.63;7.78;;;;;;;-6.80;80.87;101982.22;10596971;27;20482;-80
2022/12/18 05:50:22;;;;;;;15.82;8.88;;;;;;;-6.88;81.26;101979.38;10592673;28;20044;-79
2022/12/18 05:55:25;;;;;;;19.13;9.27;;;;;;;-6.92;81.69;101985.97;10612881;28;20051;-80
2022/12/18 06:00:28;;;;;;;18.90;9.02;;;;;;;-6.92;81.56;101985.97;10575724;27;20036;-79
2022/12/18 06:05:42;;;;;;;18.30;9.48;;;;;;;-7.05;81.60;101976.38;10598464;28;20054;-79
2022/12/18 06:10:51;;;;;;;19.70;9.27;;;;;;;-7.06;82.31;101977.34;10589120;28;20631;-79
2022/12/18 06:15:57;;;;;;;19.38;9.60;;;;;;;-6.97;82.06;101980.19;10605275;27;20077;-83
2022/12/18 06:21:02;;;;;;;19.27;9.52;;;;;;;-6.93;82.33;101984.28;10589052;28;20047;-80
2022/12/18 06:26:07;;;;;;;22.13;10.38;;;;;;;-6.95;82.40;101992.41;10610519;27;20058;-81
2022/12/18 06:31:10;;;;;;;19.67;10.77;;;;;;;-7.02;82.36;101981.44;10582032;28;20047;-81
2022/12/18 06:36:13;;;;;;;19.60;9.95;;;;;;;-7.04;82.28;101979.88;10617874;27;20044;-80
2022/12/18 06:41:19;;;;;;;19.35;10.55;;;;;;;-7.11;82.42;101978.75;10580182;28;20532;-80
2022/12/18 06:46:21;;;;;;;21.55;11.15;;;;;;;-7.13;82.55;101975.34;10597028;28;20549;-81
2022/12/18 06:51:24;;;;;;;18.15;10.73;;;;;;;-6.95;82.58;101976.41;10599576;28;20043;-80
2022/12/18 06:56:26;;;;;;;18.85;10.45;;;;;;;-6.95;82.23;101975.56;10601210;28;20043;-80
2022/12/18 07:01:28;;;;;;;18.05;9.70;;;;;;;-7.08;82.63;101971.31;10599342;28;20047;-79
2022/12/18 07:06:34;;;;;;;19.73;10.15;;;;;;;-7.12;82.20;101969.03;10584820;28;20055;-81
2022/12/18 07:11:41;;;;;;;17.15;9.70;;;;;;;-7.15;83.21;101972.81;10592689;27;20108;-80
2022/12/18 07:16:43;;;;;;;17.42;9.63;;;;;;;-7.25;82.43;101969.25;10605689;27;20046;-80
2022/12/18 07:21:46;;;;;;;13.98;8.45;;;;;;;-7.43;82.61;101979.69;10616924;28;20035;-78
2022/12/18 07:26:48;;;;;;;18.65;8.90;;;;;;;-7.54;83.10;101979.75;10600550;28;20502;-81
2022/12/18 07:31:50;;;;;;;14.93;9.18;;;;;;;-7.42;82.88;101977.88;10595221;28;20689;-80
2022/12/18 07:36:55;;;;;;;16.73;9.20;;;;;;;-7.36;82.86;101982.66;10619678;28;20040;-82
2022/12/18 07:47:19;;;;;;;15.57;8.82;;;;;;;-7.49;82.40;101972.19;10622148;27;20039;-80
2022/12/18 07:52:21;;;;;;;14.90;8.73;;;;;;;-7.63;82.63;101970.72;10603257;28;20055;-81
2022/12/18 07:57:24;;;;;;;14.80;8.07;;;;;;;-7.75;82.67;101939.78;10581887;28;20517;-82
2022/12/18 08:02:26;;;;;;;17.83;9.05;;;;;;;-7.94;83.41;101939.66;10571345;28;20050;-80
2022/12/18 08:07:29;;;;;;;17.73;9.43;;;;;;;-7.90;83.77;101938.41;10596054;27;20042;-80
2022/12/18 08:12:31;;;;;;;19.27;9.32;;;;;;;-7.85;83.51;101933.53;10589363;27;20043;-80
2022/12/18 08:17:33;;;;;;;18.35;9.98;;;;;;;-7.97;84.10;101947.91;10645573;27;20066;-79
2022/12/18 08:22:38;;;;;;;20.23;10.20;;;;;;;-7.87;84.15;101951.47;10595053;28;20035;-80
2022/12/18 08:27:41;;;;;;;19.40;10.45;;;;;;;-7.71;84.03;101959.88;10599223;28;20074;-79
2022/12/18 08:32:43;;;;;;;19.00;9.85;;;;;;;-7.65;84.21;101970.00;10596094;27;20047;-80
2022/12/18 08:37:45;;;;;;;17.23;9.80;;;;;;;-7.58;84.61;101962.34;10597068;28;20088;-80
2022/12/18 08:48:09;;;;;;;17.35;8.90;;;;;;;-7.46;83.90;101950.63;10589738;27;20528;-80
2022/12/18 08:53:11;;;;;;;18.27;9.48;;;;;;;-7.45;83.55;101943.47;10586069;28;20036;-79
2022/12/18 08:58:13;;;;;;;16.77;9.00;;;;;;;-7.33;83.68;101939.72;10556276;27;20537;-80
2022/12/18 09:03:17;;;;;;;19.95;9.82;;;;;;;-7.06;83.23;101939.16;10589353;28;20036;-80
2022/12/18 09:08:19;;;;;;;17.98;7.97;;;;;;;-7.15;82.28;101924.78;10584375;27;20043;-77
2022/12/18 09:13:22;;;;;;;17.80;8.70;;;;;;;-6.97;82.88;101934.81;10610983;27;20391;-78
2022/12/18 09:18:24;;;;;;;18.40;7.38;;;;;;;-7.07;82.61;101914.31;10647626;27;20497;-79
2022/12/18 09:23:27;;;;;;;18.80;7.95;;;;;;;-7.00;82.48;101915.44;10612690;27;20035;-78
2022/12/18 09:28:29;;;;;;;21.25;9.10;;;;;;;-6.94;82.28;101914.09;10591897;28;20040;-79
2022/12/18 09:33:31;;;;;;;22.45;10.05;;;;;;;-7.01;82.36;101918.25;10611963;28;20405;-79
2022/12/18 09:38:34;;;;;;;22.30;9.73;;;;;;;-7.08;82.51;101911.78;10608591;27;20047;-78
2022/12/18 09:43:44;;;;;;;23.20;9.90;;;;;;;-7.16;82.28;101904.44;10613074;27;20031;-78
2022/12/18 09:48:50;;;;;;;18.58;7.93;;;;;;;-7.20;81.73;101911.03;10575431;27;20043;-78
2022/12/18 09:53:56;;;;;;;19.65;7.95;;;;;;;-7.20;82.49;101903.03;10584356;27;20052;-80
2022/12/18 09:59:00;;;;;;;23.65;8.63;;;;;;;-7.27;82.21;101903.72;10593815;27;20052;-79
2022/12/18 10:04:02;;;;;;;19.92;8.32;;;;;;;-7.35;82.15;101880.38;10594319;27;20070;-79
2022/12/18 10:09:41;;;;;;;13.38;5.82;;;;;;;-7.32;82.29;101888.94;10583265;27;20039;-78
2022/12/18 10:15:20;;;;;;;13.02;6.10;;;;;;;-7.22;82.62;101891.66;10589107;27;20529;-77
2022/12/18 10:20:40;;;;;;;10.73;5.47;;;;;;;-7.33;82.84;101887.25;10589986;27;20047;-79
2022/12/18 10:26:08;;;;;;;11.20;5.45;;;;;;;-7.16;81.94;101893.78;10594019;28;20036;-78
2022/12/18 10:31:16;;;;;;;10.77;5.55;;;;;;;-7.16;81.85;101890.25;10601227;27;20425;-78
2022/12/18 10:36:20;;;;;;;10.88;5.50;;;;;;;-7.11;81.93;101885.38;10611024;27;20498;-80
2022/12/18 10:41:26;;;;;;;11.05;4.78;;;;;;;-7.12;81.64;101884.50;10593692;27;20035;-79
2022/12/18 10:46:28;;;;;;;11.77;5.03;;;;;;;-7.04;82.18;101874.03;10613899;27;20029;-78
2022/12/18 10:51:37;;;;;;;10.85;4.90;;;;;;;-7.12;81.42;101873.84;10593244;28;20048;-79
2022/12/18 10:56:40;;;;;;;10.65;5.28;;;;;;;-7.14;81.86;101881.13;10589375;27;20032;-81
2022/12/18 11:02:08;;;;;;;10.88;4.95;;;;;;;-6.98;81.63;101875.28;10617638;27;20039;-80
2022/12/18 11:07:11;;;;;;;9.80;4.60;;;;;;;-7.08;81.83;101880.63;10601276;28;20050;-80
2022/12/18 11:12:22;;;;;;;11.20;4.43;;;;;;;-7.02;81.61;101879.22;10609683;28;20043;-77
2022/12/18 11:17:31;;;;;;;10.63;5.20;;;;;;;-6.96;82.01;101877.81;10601822;27;20520;-78
2022/12/18 11:22:38;;;;;;;9.18;4.47;;;;;;;-7.06;82.28;101867.97;10587356;28;20524;-81
2022/12/18 11:27:40;;;;;;;10.60;5.47;;;;;;;-7.00;82.28;101856.75;10587787;28;20048;-82
2022/12/18 11:32:48;;;;;;;10.85;5.25;;;;;;;-7.07;82.26;101844.13;10581219;28;20417;-83
2022/12/18 11:37:57;;;;;;;11.43;5.25;;;;;;;-7.03;82.78;101840.19;10553550;28;20104;-81
2022/12/18 11:43:09;;;;;;;9.20;5.13;;;;;;;-7.11;82.54;101837.38;10588132;28;20046;-82
2022/12/18 11:48:18;;;;;;;10.68;4.88;;;;;;;-7.03;82.54;101840.19;10611619;28;20043;-79
2022/12/18 11:53:20;;;;;;;13.00;5.10;;;;;;;-6.93;82.83;101825.06;10619795;28;20473;-80
2022/12/18 11:58:41;;;;;;;8.75;4.38;;;;;;;-7.03;83.13;101817.03;10586987;28;20048;-84
2022/12/18 12:04:05;;;;;;;8.15;4.25;;;;;;;-7.02;82.64;101810.69;10591378;28;20043;-81
2022/12/18 12:09:21;;;;;;;12.00;4.82;;;;;;;-7.04;83.29;101806.50;10617586;28;20038;-78
2022/12/18 12:14:35;;;;;;;11.68;4.28;;;;;;;-6.97;82.91;101807.59;10596660;28;20051;-79
2022/12/18 12:20:15;;;;;;;11.30;4.50;;;;;;;-6.95;83.13;101807.47;10623903;27;20050;-78
2022/12/18 12:25:35;;;;;;;11.73;4.78;;;;;;;-6.90;83.27;101814.09;10588920;28;20028;-80
2022/12/18 12:30:40;;;;;;;9.10;4.80;;;;;;;-6.89;83.51;101813.13;10593925;27;20501;-82
2022/12/18 12:35:48;;;;;;;11.90;4.88;;;;;;;-6.67;83.18;101817.34;10616654;27;20050;-78
2022/12/18 12:41:00;;;;;;;13.98;5.32;;;;;;;-6.75;83.02;101818.03;10618907;27;20044;-76
2022/12/18 12:46:06;;;;;;;15.88;5.55;;;;;;;-6.81;83.58;101818.59;10566459;27;20043;-78
2022/12/18 12:51:25;;;;;;;8.65;4.72;;;;;;;-6.78;83.68;101814.78;10619614;27;20044;-75
2022/12/18 12:56:49;;;;;;;7.70;3.78;;;;;;;-6.73;84.50;101809.91;10570128;27;20070;-73
2022/12/18 13:02:13;;;;;;;7.32;4.47;;;;;;;-6.78;84.38;101810.28;10601238;28;20044;-76
2022/12/18 13:07:29;;;;;;;11.57;4.68;;;;;;;-6.77;84.99;101814.69;10612445;28;20035;-73
2022/12/18 13:18:22;;;;;;;9.63;3.75;;;;;;;-6.60;85.77;101785.56;10609319;27;20043;-74
2022/12/18 13:23:24;;;;;;;11.25;4.75;;;;;;;-6.57;85.65;101782.66;10579704;27;20039;-75
2022/12/18 13:28:33;;;;;;;10.15;4.55;;;;;;;-6.65;86.07;101794.00;10613202;27;20028;-75
2022/12/18 13:33:39;;;;;;;;;;;;;;;-6.65;85.81;101791.34;10608864;27;20036;-79
2022/12/18 13:38:44;;;;;;;12.70;4.47;;;;;;;-6.73;86.37;101794.72;10599481;27;19920;-78
2022/12/18 13:43:51;;;;;;;9.73;4.13;;;;;;;-6.78;86.39;101785.44;10600602;27;20062;-75
2022/12/18 13:49:41;;;;;;;9.55;4.50;;;;;;;-6.83;87.15;101775.19;10592357;27;20039;-77
2022/12/18 13:54:48;;;;;;;9.27;4.38;;;;;;;-6.60;86.97;101767.72;10605628;27;20541;-77
2022/12/18 13:59:50;;;;;;;9.20;4.35;;;;;;;-6.53;86.85;101763.53;10604764;27;20129;-75
2022/12/18 14:04:53;;;;;;;9.82;4.30;;;;;;;-6.51;87.22;101764.22;10613042;27;20040;-77
2022/12/18 14:09:59;;;;;;;5.95;3.40;;;;;;;-6.43;86.84;101752.81;10607573;27;20521;-77
2022/12/18 14:15:03;;;;;;;10.52;4.20;;;;;;;-6.36;86.99;101745.94;10546307;27;20505;-76
2022/12/18 14:20:13;;;;;;;8.50;3.55;;;;;;;-6.37;86.94;101736.22;10601866;27;20058;-76
2022/12/18 14:25:19;;;;;;;12.15;4.43;;;;;;;-6.25;86.91;101735.06;10588387;28;20044;-75
2022/12/18 14:30:33;;;;;;;9.15;3.55;;;;;;;-6.25;86.66;101734.22;10588120;27;20048;-76
2022/12/18 14:35:43;;;;;;;7.10;4.85;;;;;;;-6.17;86.96;101726.34;10555388;27;20052;-76
2022/12/18 14:40:46;;;;;;;6.53;3.03;;;;;;;-6.21;86.55;101715.09;10588184;28;20044;-85
2022/12/18 14:45:49;;;;;;;8.23;3.85;;;;;;;-6.14;86.34;101720.69;10581929;28;20036;-84
2022/12/18 14:51:05;;;;;;;8.07;3.60;;;;;;;-6.15;86.77;101725.19;10588789;28;20036;-84
2022/12/18 14:56:16;;;;;;;5.72;3.50;;;;;;;-6.00;87.24;101708.69;10586435;27;20141;-84
2022/12/18 15:01:44;;;;;;;5.35;3.03;;;;;;;-5.96;86.79;101718.94;10604119;27;20505;-85
2022/12/18 15:06:47;;;;;;;6.05;3.22;;;;;;;-5.90;87.14;101702.34;10608154;28;20036;-86
2022/12/18 15:12:00;;;;;;;6.32;3.10;;;;;;;-5.87;87.32;101702.00;10606671;28;20052;-85
2022/12/18 15:17:13;;;;;;;5.55;2.80;;;;;;;-5.83;87.85;101697.19;10587351;28;20052;-84
2022/12/18 15:22:28;;;;;;;4.70;2.22;;;;;;;-5.75;88.26;101694.59;10571725;28;20058;-85
2022/12/18 15:27:35;;;;;;;6.03;3.05;;;;;;;-5.69;88.98;101677.16;10588879;28;20046;-84
2022/12/18 15:32:38;;;;;;;6.97;2.90;;;;;;;-5.66;89.19;101676.84;10574032;28;20062;-84
2022/12/18 15:37:43;;;;;;;6.10;2.90;;;;;;;-5.64;89.23;101665.00;10565850;28;20052;-84
2022/12/18 15:48:18;;;;;;;5.07;2.15;;;;;;;-5.52;89.54;101668.31;10531280;28;20050;-83
2022/12/18 15:53:20;;;;;;;3.63;1.60;;;;;;;-5.38;89.73;101649.06;10546945;28;20035;-83
2022/12/18 15:58:22;;;;;;;2.72;1.77;;;;;;;-5.31;89.74;101651.97;10530966;28;20039;-84
2022/12/18 16:03:24;;;;;;;6.88;2.90;;;;;;;-5.20;89.96;101654.41;10568444;28;20422;-83
2022/12/18 16:08:26;;;;;;;4.70;2.13;;;;;;;-5.09;90.16;101653.31;10565075;28;20039;-82
2022/12/18 16:13:31;;;;;;;2.83;1.45;;;;;;;-5.02;90.31;101655.25;10550640;28;20049;-85
2022/12/18 16:18:36;;;;;;;5.70;2.90;;;;;;;-4.95;90.22;101650.09;10516138;28;20044;-82
2022/12/18 16:23:38;;;;;;;4.82;2.25;;;;;;;-4.89;90.57;101646.78;10566040;28;20047;-78
2022/12/18 16:28:40;;;;;;;4.15;2.63;;;;;;;-4.84;90.23;101641.84;10574665;28;20388;-79
2022/12/18 16:33:43;;;;;;;4.05;2.70;;;;;;;-4.79;89.77;101641.34;10563371;28;20046;-79
2022/12/18 16:38:48;;;;;;;5.70;2.15;;;;;;;-4.82;89.50;101631.81;10556454;28;20048;-80
2022/12/18 16:43:50;;;;;;;4.07;2.30;;;;;;;-4.81;89.12;101628.13;10562523;28;20035;-79
2022/12/18 16:48:52;;;;;;;1.98;1.23;;;;;;;-4.79;89.10;101631.47;10563084;28;20036;-80
2022/12/18 16:53:55;;;;;;;2.60;1.85;;;;;;;-4.76;88.99;101617.78;10532157;28;20054;-85
2022/12/18 16:59:00;;;;;;;2.03;1.30;;;;;;;-4.79;89.42;101602.03;10555198;28;20506;-79
2022/12/18 17:04:04;;;;;;;1.25;1.05;;;;;;;-4.75;89.24;101592.69;10551527;28;20044;-81
2022/12/18 17:09:09;;;;;;;4.95;2.03;;;;;;;-4.66;89.33;101590.91;10535362;28;20044;-79
2022/12/18 17:14:14;;;;;;;6.70;2.75;;;;;;;-4.42;90.05;101598.22;10484499;28;20040;-80
2022/12/18 17:19:20;;;;;;;5.90;3.83;;;;;;;-3.86;90.15;101578.81;10535293;28;20421;-79
2022/12/18 17:24:27;;;;;;;9.43;3.17;;;;;;;-3.87;89.89;101573.63;10552093;28;20036;-77
2022/12/18 17:29:30;;;;;;;4.47;2.20;;;;;;;-4.04;89.36;101570.91;10553740;28;20047;-82
2022/12/18 17:34:33;;;;;;;6.63;3.08;;;;;;;-3.98;89.85;101567.59;10575279;28;20506;-81
2022/12/18 17:39:36;;;;;;;6.72;2.75;;;;;;;-3.97;90.00;101560.38;10613880;27;20051;-80
2022/12/18 17:44:38;;;;;;;5.45;3.25;;;;;;;-4.02;90.52;101555.50;10610518;27;20043;-80
2022/12/18 17:49:41;;;;;;;8.18;3.05;;;;;;;-3.93;90.82;101551.00;10614005;27;20083;-79
2022/12/18 17:54:44;;;;;;;5.82;2.67;;;;;;;-3.84;90.77;101536.59;10613967;27;20054;-78
2022/12/18 17:59:46;;;;;;;5.25;3.08;;;;;;;-3.87;90.90;101538.78;10612660;27;20036;-78
2022/12/18 18:04:49;;;;;;;6.53;2.50;;;;;;;-3.77;90.85;101528.75;10606023;27;20477;-80
2022/12/18 18:09:52;;;;;;;4.63;2.58;;;;;;;-3.75;91.24;101529.41;10618628;27;20331;-79
2022/12/18 18:14:54;;;;;;;3.08;2.42;;;;;;;-3.84;91.32;101517.00;10607095;28;20031;-80
2022/12/18 18:19:57;;;;;;;4.78;2.13;;;;;;;-3.83;91.85;101507.94;10602785;28;20048;-79
2022/12/18 18:25:02;;;;;;;5.60;3.45;;;;;;;-3.82;91.60;101506.94;10601030;27;20035;-79
2022/12/18 18:30:06;;;;;;;8.88;3.00;;;;;;;-3.78;91.51;101506.47;10598671;27;20056;-79
2022/12/18 18:35:08;;;;;;;5.35;3.28;;;;;;;-3.73;91.43;101501.44;10610814;27;20046;-86
2022/12/18 18:40:11;;;;;;;3.78;1.95;;;;;;;-3.80;91.55;101488.88;10607059;27;20047;-78
2022/12/18 18:45:16;;;;;;;7.28;3.45;;;;;;;-3.83;91.37;101503.41;10611944;27;20055;-80
2022/12/18 18:50:22;;;;;;;3.70;1.85;;;;;;;-3.79;91.28;101490.53;10607370;27;20130;-79
2022/12/18 18:55:25;;;;;;;6.72;3.20;;;;;;;-3.77;91.58;101493.88;10589043;28;20031;-76
2022/12/18 19:00:27;;;;;;;3.83;2.17;;;;;;;-3.72;91.28;101478.13;10611085;27;20054;-76
2022/12/18 19:05:30;;;;;;;5.07;2.40;;;;;;;-3.77;91.69;101477.81;10610219;27;20498;-74
2022/12/18 19:10:33;;;;;;;6.85;2.97;;;;;;;-3.81;91.34;101463.06;10607602;27;20056;-74
2022/12/18 19:15:35;;;;;;;8.05;2.90;;;;;;;-3.79;91.85;101458.34;10612177;27;20047;-73
2022/12/18 19:20:38;;;;;;;6.90;3.10;;;;;;;-3.84;92.46;101444.59;10654386;27;20512;-75
2022/12/18 19:25:40;;;;;;;7.72;3.22;;;;;;;-3.87;92.75;101442.25;10594441;28;20036;-74
2022/12/18 19:30:43;;;;;;;9.90;4.85;;;;;;;-3.79;93.31;101434.22;10612775;28;20308;-74
2022/12/18 19:35:45;;;;;;;12.00;4.47;;;;;;;-3.77;93.90;101437.56;10615158;28;20134;-77
2022/12/18 19:40:47;;;;;;;6.30;3.70;;;;;;;-3.72;94.15;101425.34;10596507;28;20039;-79
2022/12/18 19:45:55;;;;;;;8.23;4.57;;;;;;;-3.67;94.02;101422.13;10576096;28;20039;-74
2022/12/18 19:51:05;;;;;;;7.45;4.10;;;;;;;-3.70;94.23;101407.22;10592440;28;20042;-75
2022/12/18 19:56:10;;;;;;;9.13;4.80;;;;;;;-3.68;94.43;101399.00;10620938;28;20512;-73
2022/12/18 20:01:15;;;;;;;9.02;4.30;;;;;;;-3.70;94.17;101392.97;10596693;28;20409;-74
2022/12/18 20:06:23;;;;;;;7.53;4.03;;;;;;;-3.66;94.70;101391.63;10575248;28;20043;-73
2022/12/18 20:11:27;;;;;;;8.43;4.47;;;;;;;-3.65;94.60;101382.56;10577908;28;20417;-78
2022/12/18 20:16:29;;;;;;;7.15;3.88;;;;;;;-3.62;94.81;101384.09;10592068;28;20047;-76
2022/12/18 20:21:33;;;;;;;8.25;4.07;;;;;;;-3.58;95.09;101377.38;10613974;28;20054;-72
2022/12/18 20:26:35;;;;;;;7.45;3.95;;;;;;;-3.60;95.36;101369.50;10578005;28;20055;-75
2022/12/18 20:31:38;;;;;;;6.78;4.00;;;;;;;-3.54;95.36;101363.44;10591769;28;20037;-72
2022/12/18 20:36:40;;;;;;;9.25;3.53;;;;;;;-3.54;96.04;101352.72;10548129;28;20055;-74
2022/12/18 20:41:44;;;;;;;7.53;3.90;;;;;;;-3.50;95.98;101337.94;10571984;28;20094;-72
2022/12/18 20:46:47;;;;;;;8.05;3.47;;;;;;;-3.46;95.69;101328.56;10551133;28;20449;-73
2022/12/18 20:51:51;;;;;;;6.80;3.28;;;;;;;-3.43;95.81;101325.53;10572139;28;20051;-73
2022/12/18 20:56:55;;;;;;;8.57;4.05;;;;;;;-3.38;95.78;101320.47;10551710;28;20062;-73
2022/12/18 21:01:57;;;;;;;5.70;3.08;;;;;;;-3.34;95.87;101324.47;10544959;28;20076;-74
2022/12/18 21:06:59;;;;;;;5.55;3.38;;;;;;;-3.22;95.61;101306.16;10553477;28;20039;-73
2022/12/18 21:17:25;;;;;;;5.95;3.45;;;;;;;-3.15;95.83;101299.06;10561648;28;20032;-73
2022/12/18 21:22:27;;;;;;;8.32;4.10;;;;;;;-3.13;96.01;101298.88;10571384;28;20036;-75
2022/12/18 21:27:30;;;;;;;5.28;3.67;;;;;;;-3.10;95.60;101290.50;10552182;28;20040;-73
2022/12/18 21:32:32;;;;;;;4.78;3.30;;;;;;;-3.08;95.94;101277.75;10569729;28;20039;-80
2022/12/18 21:37:34;;;;;;;4.60;2.50;;;;;;;-3.04;95.93;101279.03;10594100;28;20052;-77
2022/12/18 21:48:00;;;;;;;3.85;1.92;;;;;;;-2.96;96.01;101268.25;10605462;28;20055;-78
2022/12/18 21:53:02;;;;;;;4.38;2.67;;;;;;;-2.94;96.50;101262.72;10605976;27;20413;-80
2022/12/18 21:58:05;;;;;;;4.82;2.38;;;;;;;-2.96;96.13;101244.09;10616560;27;20046;-82
2022/12/18 22:03:07;;;;;;;3.40;2.30;;;;;;;-2.95;96.78;101248.47;10606053;27;20047;-79
2022/12/18 22:08:10;;;;;;;4.65;2.40;;;;;;;-2.93;97.31;101238.38;10596198;27;20035;-77
2022/12/18 22:13:13;;;;;;;3.92;2.30;;;;;;;-2.96;97.36;101246.75;10618153;27;20039;-80
2022/12/18 22:18:15;;;;;;;4.22;2.20;;;;;;;-2.97;98.08;101226.31;10586689;28;20048;-85
2022/12/18 22:23:17;;;;;;;4.72;2.22;;;;;;;-2.96;98.18;101235.19;10602342;28;20041;-82
2022/12/18 22:33:41;;;;;;;6.32;2.83;;;;;;;-2.92;98.25;101212.38;10588590;27;20051;-82
2022/12/18 22:38:45;;;;;;;4.55;2.53;;;;;;;-2.90;98.59;101205.78;10597416;28;20044;-77
2022/12/18 22:43:48;;;;;;;5.55;2.83;;;;;;;-2.84;98.46;101199.69;10606885;28;20079;-75
2022/12/18 22:48:50;;;;;;;4.63;2.42;;;;;;;-2.77;98.59;101197.16;10611357;27;20048;-77
2022/12/18 22:53:53;;;;;;;3.42;2.53;;;;;;;-2.71;98.54;101192.88;10610207;27;20046;-77
2022/12/18 22:58:56;;;;;;;3.38;2.38;;;;;;;-2.69;98.54;101196.22;10613047;27;20052;-75
2022/12/18 23:03:58;;;;;;;3.08;2.28;;;;;;;-2.66;98.40;101179.75;10599303;28;20051;-76
2022/12/18 23:09:00;;;;;;;4.70;2.38;;;;;;;-2.64;98.07;101178.53;10605870;27;20050;-77
2022/12/18 23:14:03;;;;;;;3.08;2.28;;;;;;;-2.57;98.14;101173.28;10602732;28;20639;-76
2022/12/18 23:19:05;;;;;;;3.55;2.17;;;;;;;-2.48;97.91;101177.56;10603503;27;20418;-77
2022/12/18 23:24:08;;;;;;;3.97;2.22;;;;;;;-2.41;98.10;101150.81;10608186;27;20052;-77
2022/12/18 23:29:12;;;;;;;4.53;2.05;;;;;;;-2.36;97.96;101149.22;10600475;28;20044;-76
2022/12/18 23:34:16;;;;;;;3.70;2.47;;;;;;;-2.29;97.74;101138.56;10601143;28;20055;-76
2022/12/18 23:39:19;;;;;;;2.40;1.80;;;;;;;-2.18;98.12;101130.03;10601811;28;20497;-75
2022/12/18 23:44:21;;;;;;;3.28;2.28;;;;;;;-2.12;97.92;101134.66;10610405;28;20032;-75
2022/12/18 23:49:23;;;;;;;3.22;2.03;;;;;;;-2.03;98.04;101119.28;10607287;28;20039;-76
2022/12/18 23:54:26;;;;;;;4.50;2.00;;;;;;;-1.96;98.30;101109.44;10609926;28;20047;-75
2022/12/18 23:59:28;;;;;;;2.42;1.80;;;;;;;-1.89;98.37;101107.69;10607534;28;20052;-74
